sensor_id;sensor_type;location;lat;lon;timestamp;P1;durP1;ratioP1;P2;durP2;ratioP2
10651;SDS011;5374;42.742;23.266;2022-12-18T00:00:23;21.27;;;12.97;;
10651;SDS011;5374;42.742;23.266;2022-12-18T00:03:10;21.10;;;13.30;;
10651;SDS011;5374;42.742;23.266;2022-12-18T00:05:57;19.23;;;12.57;;
10651;SDS011;5374;42.742;23.266;2022-12-18T00:08:46;24.70;;;15.27;;
10651;SDS011;5374;42.742;23.266;2022-12-18T00:11:33;16.30;;;12.10;;
10651;SDS011;5374;42.742;23.266;2022-12-18T00:14:20;14.63;;;11.37;;
10651;SDS011;5374;42.742;23.266;2022-12-18T00:17:08;14.63;;;11.17;;
10651;SDS011;5374;42.742;23.266;2022-12-18T00:19:55;16.37;;;11.77;;
10651;SDS011;5374;42.742;23.266;2022-12-18T00:22:42;15.07;;;11.13;;
10651;SDS011;5374;42.742;23.266;2022-12-18T00:25:43;20.30;;;13.77;;
10651;SDS011;5374;42.742;23.266;2022-12-18T00:28:54;21.53;;;14.40;;
10651;SDS011;5374;42.742;23.266;2022-12-18T00:32:00;17.47;;;12.37;;
10651;SDS011;5374;42.742;23.266;2022-12-18T00:34:47;17.00;;;11.57;;
10651;SDS011;5374;42.742;23.266;2022-12-18T00:37:34;18.00;;;11.40;;
10651;SDS011;5374;42.742;23.266;2022-12-18T00:40:21;16.90;;;11.73;;
10651;SDS011;5374;42.742;23.266;2022-12-18T00:43:10;17.87;;;12.27;;
10651;SDS011;5374;42.742;23.266;2022-12-18T00:45:56;18.27;;;13.53;;
10651;SDS011;5374;42.742;23.266;2022-12-18T00:48:44;18.23;;;12.07;;
10651;SDS011;5374;42.742;23.266;2022-12-18T00:51:31;15.87;;;11.97;;
10651;SDS011;5374;42.742;23.266;2022-12-18T00:54:18;12.13;;;10.00;;
10651;SDS011;5374;42.742;23.266;2022-12-18T00:57:05;12.97;;;9.87;;
10651;SDS011;5374;42.742;23.266;2022-12-18T00:59:54;14.43;;;10.50;;
10651;SDS011;5374;42.742;23.266;2022-12-18T01:02:42;16.00;;;11.27;;
10651;SDS011;5374;42.742;23.266;2022-12-18T01:05:29;15.33;;;11.77;;
10651;SDS011;5374;42.742;23.266;2022-12-18T01:08:16;16.20;;;12.00;;
10651;SDS011;5374;42.742;23.266;2022-12-18T01:11:07;17.43;;;12.00;;
10651;SDS011;5374;42.742;23.266;2022-12-18T01:13:55;17.47;;;12.97;;
10651;SDS011;5374;42.742;23.266;2022-12-18T01:16:44;18.13;;;13.57;;
10651;SDS011;5374;42.742;23.266;2022-12-18T01:19:31;18.13;;;12.70;;
10651;SDS011;5374;42.742;23.266;2022-12-18T01:22:18;18.13;;;12.97;;
10651;SDS011;5374;42.742;23.266;2022-12-18T01:25:05;18.23;;;13.07;;
10651;SDS011;5374;42.742;23.266;2022-12-18T01:27:53;17.27;;;12.57;;
10651;SDS011;5374;42.742;23.266;2022-12-18T01:30:40;19.13;;;13.20;;
10651;SDS011;5374;42.742;23.266;2022-12-18T01:33:29;18.10;;;13.13;;
10651;SDS011;5374;42.742;23.266;2022-12-18T01:36:17;17.10;;;13.50;;
10651;SDS011;5374;42.742;23.266;2022-12-18T01:39:07;21.40;;;13.77;;
10651;SDS011;5374;42.742;23.266;2022-12-18T01:41:57;19.67;;;13.50;;
10651;SDS011;5374;42.742;23.266;2022-12-18T01:44:54;16.30;;;12.00;;
10651;SDS011;5374;42.742;23.266;2022-12-18T01:47:47;16.33;;;12.40;;
10651;SDS011;5374;42.742;23.266;2022-12-18T01:50:38;16.27;;;12.63;;
10651;SDS011;5374;42.742;23.266;2022-12-18T01:53:26;14.17;;;11.43;;
10651;SDS011;5374;42.742;23.266;2022-12-18T01:56:15;17.00;;;11.67;;
10651;SDS011;5374;42.742;23.266;2022-12-18T01:59:03;17.63;;;11.70;;
10651;SDS011;5374;42.742;23.266;2022-12-18T02:01:54;15.97;;;11.17;;
10651;SDS011;5374;42.742;23.266;2022-12-18T02:04:42;17.23;;;11.27;;
10651;SDS011;5374;42.742;23.266;2022-12-18T02:07:32;14.63;;;10.93;;
10651;SDS011;5374;42.742;23.266;2022-12-18T02:10:28;13.87;;;10.83;;
10651;SDS011;5374;42.742;23.266;2022-12-18T02:13:19;16.43;;;10.43;;
10651;SDS011;5374;42.742;23.266;2022-12-18T02:16:16;14.27;;;10.73;;
10651;SDS011;5374;42.742;23.266;2022-12-18T02:19:20;14.73;;;10.20;;
10651;SDS011;5374;42.742;23.266;2022-12-18T02:22:27;14.63;;;10.90;;
10651;SDS011;5374;42.742;23.266;2022-12-18T02:25:28;14.27;;;9.93;;
10651;SDS011;5374;42.742;23.266;2022-12-18T02:28:30;13.20;;;9.97;;
10651;SDS011;5374;42.742;23.266;2022-12-18T02:31:21;14.37;;;9.23;;
10651;SDS011;5374;42.742;23.266;2022-12-18T02:34:12;11.87;;;9.33;;
10651;SDS011;5374;42.742;23.266;2022-12-18T02:37:02;10.83;;;8.83;;
10651;SDS011;5374;42.742;23.266;2022-12-18T02:39:53;11.63;;;8.80;;
10651;SDS011;5374;42.742;23.266;2022-12-18T02:42:43;14.00;;;9.53;;
10651;SDS011;5374;42.742;23.266;2022-12-18T02:45:32;14.67;;;8.93;;
10651;SDS011;5374;42.742;23.266;2022-12-18T02:48:21;13.03;;;8.70;;
10651;SDS011;5374;42.742;23.266;2022-12-18T02:51:15;15.83;;;10.23;;
10651;SDS011;5374;42.742;23.266;2022-12-18T02:54:08;14.00;;;10.20;;
10651;SDS011;5374;42.742;23.266;2022-12-18T02:57:04;13.77;;;10.03;;
10651;SDS011;5374;42.742;23.266;2022-12-18T03:00:01;14.90;;;10.67;;
10651;SDS011;5374;42.742;23.266;2022-12-18T03:02:55;13.37;;;10.53;;
10651;SDS011;5374;42.742;23.266;2022-12-18T03:05:47;12.83;;;10.27;;
10651;SDS011;5374;42.742;23.266;2022-12-18T03:08:41;13.90;;;10.53;;
10651;SDS011;5374;42.742;23.266;2022-12-18T03:11:33;13.57;;;10.20;;
10651;SDS011;5374;42.742;23.266;2022-12-18T03:14:40;12.17;;;9.67;;
10651;SDS011;5374;42.742;23.266;2022-12-18T03:17:31;12.07;;;9.40;;
10651;SDS011;5374;42.742;23.266;2022-12-18T03:20:21;13.50;;;10.20;;
10651;SDS011;5374;42.742;23.266;2022-12-18T03:23:12;17.23;;;10.60;;
10651;SDS011;5374;42.742;23.266;2022-12-18T03:26:03;14.60;;;10.63;;
10651;SDS011;5374;42.742;23.266;2022-12-18T03:28:55;17.50;;;10.83;;
10651;SDS011;5374;42.742;23.266;2022-12-18T03:31:47;14.23;;;11.00;;
10651;SDS011;5374;42.742;23.266;2022-12-18T03:34:40;17.83;;;10.50;;
10651;SDS011;5374;42.742;23.266;2022-12-18T03:37:30;18.57;;;11.00;;
10651;SDS011;5374;42.742;23.266;2022-12-18T03:40:18;19.60;;;12.10;;
10651;SDS011;5374;42.742;23.266;2022-12-18T03:43:12;19.37;;;12.17;;
10651;SDS011;5374;42.742;23.266;2022-12-18T03:46:06;19.13;;;11.73;;
10651;SDS011;5374;42.742;23.266;2022-12-18T03:48:59;20.53;;;12.90;;
10651;SDS011;5374;42.742;23.266;2022-12-18T03:51:57;17.80;;;12.10;;
10651;SDS011;5374;42.742;23.266;2022-12-18T03:54:50;18.20;;;12.00;;
10651;SDS011;5374;42.742;23.266;2022-12-18T03:57:41;21.70;;;13.57;;
10651;SDS011;5374;42.742;23.266;2022-12-18T04:00:30;18.83;;;12.70;;
10651;SDS011;5374;42.742;23.266;2022-12-18T04:03:18;18.20;;;12.20;;
10651;SDS011;5374;42.742;23.266;2022-12-18T04:06:07;19.30;;;14.27;;
10651;SDS011;5374;42.742;23.266;2022-12-18T04:08:56;19.97;;;13.23;;
10651;SDS011;5374;42.742;23.266;2022-12-18T04:11:46;29.43;;;17.17;;
10651;SDS011;5374;42.742;23.266;2022-12-18T04:14:34;29.03;;;17.37;;
10651;SDS011;5374;42.742;23.266;2022-12-18T04:17:21;20.47;;;13.73;;
10651;SDS011;5374;42.742;23.266;2022-12-18T04:20:09;21.10;;;14.10;;
10651;SDS011;5374;42.742;23.266;2022-12-18T04:22:56;18.47;;;13.93;;
10651;SDS011;5374;42.742;23.266;2022-12-18T04:25:44;18.47;;;13.37;;
10651;SDS011;5374;42.742;23.266;2022-12-18T04:28:33;19.60;;;13.63;;
10651;SDS011;5374;42.742;23.266;2022-12-18T04:31:20;22.20;;;13.80;;
10651;SDS011;5374;42.742;23.266;2022-12-18T04:34:07;20.40;;;14.37;;
10651;SDS011;5374;42.742;23.266;2022-12-18T04:36:54;20.37;;;14.33;;
10651;SDS011;5374;42.742;23.266;2022-12-18T04:39:41;21.43;;;14.00;;
10651;SDS011;5374;42.742;23.266;2022-12-18T04:42:28;18.50;;;14.23;;
10651;SDS011;5374;42.742;23.266;2022-12-18T04:45:17;18.03;;;13.70;;
10651;SDS011;5374;42.742;23.266;2022-12-18T04:48:04;21.67;;;14.43;;
10651;SDS011;5374;42.742;23.266;2022-12-18T04:50:52;19.20;;;13.90;;
10651;SDS011;5374;42.742;23.266;2022-12-18T04:53:39;20.00;;;14.67;;
10651;SDS011;5374;42.742;23.266;2022-12-18T04:56:26;18.13;;;13.53;;
10651;SDS011;5374;42.742;23.266;2022-12-18T04:59:14;20.03;;;13.97;;
10651;SDS011;5374;42.742;23.266;2022-12-18T05:02:02;19.13;;;13.50;;
10651;SDS011;5374;42.742;23.266;2022-12-18T05:04:50;21.53;;;14.97;;
10651;SDS011;5374;42.742;23.266;2022-12-18T05:07:37;21.10;;;15.43;;
10651;SDS011;5374;42.742;23.266;2022-12-18T05:10:24;20.10;;;14.03;;
10651;SDS011;5374;42.742;23.266;2022-12-18T05:13:12;19.87;;;14.67;;
10651;SDS011;5374;42.742;23.266;2022-12-18T05:15:59;21.53;;;14.70;;
10651;SDS011;5374;42.742;23.266;2022-12-18T05:18:48;22.40;;;15.00;;
10651;SDS011;5374;42.742;23.266;2022-12-18T05:21:35;22.30;;;15.67;;
10651;SDS011;5374;42.742;23.266;2022-12-18T05:24:22;22.10;;;16.57;;
10651;SDS011;5374;42.742;23.266;2022-12-18T05:27:10;22.67;;;16.20;;
10651;SDS011;5374;42.742;23.266;2022-12-18T05:29:57;22.07;;;15.80;;
10651;SDS011;5374;42.742;23.266;2022-12-18T05:32:44;25.57;;;16.60;;
10651;SDS011;5374;42.742;23.266;2022-12-18T05:35:33;24.00;;;16.97;;
10651;SDS011;5374;42.742;23.266;2022-12-18T05:38:20;26.33;;;17.50;;
10651;SDS011;5374;42.742;23.266;2022-12-18T05:41:08;23.47;;;16.80;;
10651;SDS011;5374;42.742;23.266;2022-12-18T05:43:56;35.97;;;23.97;;
10651;SDS011;5374;42.742;23.266;2022-12-18T05:46:43;25.53;;;17.13;;
10651;SDS011;5374;42.742;23.266;2022-12-18T05:49:30;24.37;;;17.27;;
10651;SDS011;5374;42.742;23.266;2022-12-18T05:52:19;24.70;;;16.80;;
10651;SDS011;5374;42.742;23.266;2022-12-18T05:55:07;23.27;;;15.77;;
10651;SDS011;5374;42.742;23.266;2022-12-18T05:57:55;21.27;;;15.97;;
10651;SDS011;5374;42.742;23.266;2022-12-18T06:00:43;22.80;;;15.90;;
10651;SDS011;5374;42.742;23.266;2022-12-18T06:03:31;20.93;;;15.40;;
10651;SDS011;5374;42.742;23.266;2022-12-18T06:06:19;21.90;;;15.67;;
10651;SDS011;5374;42.742;23.266;2022-12-18T06:09:09;21.87;;;15.90;;
10651;SDS011;5374;42.742;23.266;2022-12-18T06:11:57;21.13;;;14.87;;
10651;SDS011;5374;42.742;23.266;2022-12-18T06:14:44;22.57;;;15.63;;
10651;SDS011;5374;42.742;23.266;2022-12-18T06:17:31;20.47;;;15.27;;
10651;SDS011;5374;42.742;23.266;2022-12-18T06:20:19;23.30;;;15.83;;
10651;SDS011;5374;42.742;23.266;2022-12-18T06:23:06;22.70;;;15.50;;
10651;SDS011;5374;42.742;23.266;2022-12-18T06:25:56;21.03;;;15.00;;
10651;SDS011;5374;42.742;23.266;2022-12-18T06:28:43;24.80;;;16.33;;
10651;SDS011;5374;42.742;23.266;2022-12-18T06:31:30;27.20;;;16.57;;
10651;SDS011;5374;42.742;23.266;2022-12-18T06:34:17;27.33;;;17.03;;
10651;SDS011;5374;42.742;23.266;2022-12-18T06:37:04;30.87;;;18.20;;
10651;SDS011;5374;42.742;23.266;2022-12-18T06:39:52;32.10;;;19.27;;
10651;SDS011;5374;42.742;23.266;2022-12-18T06:42:40;23.00;;;15.73;;
10651;SDS011;5374;42.742;23.266;2022-12-18T06:45:28;23.93;;;15.87;;
10651;SDS011;5374;42.742;23.266;2022-12-18T06:48:15;28.63;;;16.90;;
10651;SDS011;5374;42.742;23.266;2022-12-18T06:51:02;25.00;;;16.90;;
10651;SDS011;5374;42.742;23.266;2022-12-18T06:53:50;23.47;;;15.87;;
10651;SDS011;5374;42.742;23.266;2022-12-18T06:56:37;24.33;;;16.10;;
10651;SDS011;5374;42.742;23.266;2022-12-18T06:59:26;23.33;;;16.37;;
10651;SDS011;5374;42.742;23.266;2022-12-18T07:02:13;20.80;;;14.83;;
10651;SDS011;5374;42.742;23.266;2022-12-18T07:05:00;20.53;;;14.50;;
10651;SDS011;5374;42.742;23.266;2022-12-18T07:07:48;20.70;;;15.40;;
10651;SDS011;5374;42.742;23.266;2022-12-18T07:10:40;21.27;;;14.40;;
10651;SDS011;5374;42.742;23.266;2022-12-18T07:13:27;22.23;;;14.77;;
10651;SDS011;5374;42.742;23.266;2022-12-18T07:16:17;25.17;;;16.10;;
10651;SDS011;5374;42.742;23.266;2022-12-18T07:19:05;23.00;;;15.40;;
10651;SDS011;5374;42.742;23.266;2022-12-18T07:21:53;23.53;;;16.37;;
10651;SDS011;5374;42.742;23.266;2022-12-18T07:24:40;21.87;;;16.43;;
10651;SDS011;5374;42.742;23.266;2022-12-18T07:27:27;23.53;;;15.77;;
10651;SDS011;5374;42.742;23.266;2022-12-18T07:30:15;22.37;;;15.77;;
10651;SDS011;5374;42.742;23.266;2022-12-18T07:33:04;24.53;;;16.37;;
10651;SDS011;5374;42.742;23.266;2022-12-18T07:35:51;23.97;;;16.07;;
10651;SDS011;5374;42.742;23.266;2022-12-18T07:38:39;23.47;;;16.00;;
10651;SDS011;5374;42.742;23.266;2022-12-18T07:41:26;22.27;;;15.50;;
10651;SDS011;5374;42.742;23.266;2022-12-18T07:44:13;25.67;;;16.87;;
10651;SDS011;5374;42.742;23.266;2022-12-18T07:47:00;25.23;;;16.77;;
10651;SDS011;5374;42.742;23.266;2022-12-18T07:49:49;23.53;;;16.67;;
10651;SDS011;5374;42.742;23.266;2022-12-18T07:52:36;24.70;;;17.07;;
10651;SDS011;5374;42.742;23.266;2022-12-18T07:55:23;23.80;;;16.70;;
10651;SDS011;5374;42.742;23.266;2022-12-18T07:58:10;25.77;;;18.40;;
10651;SDS011;5374;42.742;23.266;2022-12-18T08:01:01;23.60;;;17.53;;
10651;SDS011;5374;42.742;23.266;2022-12-18T08:03:50;24.00;;;17.63;;
10651;SDS011;5374;42.742;23.266;2022-12-18T08:06:38;24.03;;;16.20;;
10651;SDS011;5374;42.742;23.266;2022-12-18T08:09:26;26.83;;;17.20;;
10651;SDS011;5374;42.742;23.266;2022-12-18T08:12:13;26.07;;;17.83;;
10651;SDS011;5374;42.742;23.266;2022-12-18T08:15:00;24.83;;;16.93;;
10651;SDS011;5374;42.742;23.266;2022-12-18T08:17:48;26.27;;;17.33;;
10651;SDS011;5374;42.742;23.266;2022-12-18T08:20:35;29.27;;;17.77;;
10651;SDS011;5374;42.742;23.266;2022-12-18T08:23:24;24.83;;;16.43;;
10651;SDS011;5374;42.742;23.266;2022-12-18T08:26:11;27.57;;;18.20;;
10651;SDS011;5374;42.742;23.266;2022-12-18T08:28:59;25.13;;;17.27;;
10651;SDS011;5374;42.742;23.266;2022-12-18T08:31:47;25.83;;;17.13;;
10651;SDS011;5374;42.742;23.266;2022-12-18T08:34:34;22.67;;;15.17;;
10651;SDS011;5374;42.742;23.266;2022-12-18T08:37:21;19.97;;;14.47;;
10651;SDS011;5374;42.742;23.266;2022-12-18T08:40:11;23.27;;;15.20;;
10651;SDS011;5374;42.742;23.266;2022-12-18T08:42:59;22.60;;;15.97;;
10651;SDS011;5374;42.742;23.266;2022-12-18T08:46:04;23.30;;;15.83;;
10651;SDS011;5374;42.742;23.266;2022-12-18T08:48:51;22.73;;;15.77;;
10651;SDS011;5374;42.742;23.266;2022-12-18T08:51:39;22.80;;;15.27;;
10651;SDS011;5374;42.742;23.266;2022-12-18T08:54:27;21.13;;;15.40;;
10651;SDS011;5374;42.742;23.266;2022-12-18T08:57:15;21.23;;;15.17;;
10651;SDS011;5374;42.742;23.266;2022-12-18T09:00:03;22.77;;;15.77;;
10651;SDS011;5374;42.742;23.266;2022-12-18T09:02:51;22.70;;;16.37;;
10651;SDS011;5374;42.742;23.266;2022-12-18T09:05:38;24.30;;;17.07;;
10651;SDS011;5374;42.742;23.266;2022-12-18T09:08:25;21.60;;;15.83;;
10651;SDS011;5374;42.742;23.266;2022-12-18T09:11:14;23.17;;;16.33;;
10651;SDS011;5374;42.742;23.266;2022-12-18T09:14:08;21.47;;;15.90;;
10651;SDS011;5374;42.742;23.266;2022-12-18T09:16:56;32.00;;;16.50;;
10651;SDS011;5374;42.742;23.266;2022-12-18T09:19:43;22.37;;;15.53;;
10651;SDS011;5374;42.742;23.266;2022-12-18T09:22:30;24.13;;;16.70;;
10651;SDS011;5374;42.742;23.266;2022-12-18T09:25:18;26.87;;;17.87;;
10651;SDS011;5374;42.742;23.266;2022-12-18T09:28:05;22.23;;;15.47;;
10651;SDS011;5374;42.742;23.266;2022-12-18T09:30:58;24.00;;;17.17;;
10651;SDS011;5374;42.742;23.266;2022-12-18T09:33:45;26.27;;;16.87;;
10651;SDS011;5374;42.742;23.266;2022-12-18T09:36:32;33.30;;;18.47;;
10651;SDS011;5374;42.742;23.266;2022-12-18T09:39:19;47.70;;;21.80;;
10651;SDS011;5374;42.742;23.266;2022-12-18T09:42:09;23.53;;;15.13;;
10651;SDS011;5374;42.742;23.266;2022-12-18T09:45:07;24.53;;;15.03;;
10651;SDS011;5374;42.742;23.266;2022-12-18T09:48:02;24.67;;;17.60;;
10651;SDS011;5374;42.742;23.266;2022-12-18T09:50:55;22.87;;;16.53;;
10651;SDS011;5374;42.742;23.266;2022-12-18T09:53:47;25.73;;;16.63;;
10651;SDS011;5374;42.742;23.266;2022-12-18T09:56:41;24.43;;;17.13;;
10651;SDS011;5374;42.742;23.266;2022-12-18T09:59:31;25.37;;;16.57;;
10651;SDS011;5374;42.742;23.266;2022-12-18T10:02:22;27.37;;;17.57;;
10651;SDS011;5374;42.742;23.266;2022-12-18T10:05:14;22.70;;;15.47;;
10651;SDS011;5374;42.742;23.266;2022-12-18T10:08:07;28.23;;;16.97;;
10651;SDS011;5374;42.742;23.266;2022-12-18T10:11:01;25.27;;;15.93;;
10651;SDS011;5374;42.742;23.266;2022-12-18T10:14:01;26.33;;;16.57;;
10651;SDS011;5374;42.742;23.266;2022-12-18T10:16:58;22.10;;;15.93;;
10651;SDS011;5374;42.742;23.266;2022-12-18T10:19:54;22.20;;;16.20;;
10651;SDS011;5374;42.742;23.266;2022-12-18T10:22:49;23.43;;;15.40;;
10651;SDS011;5374;42.742;23.266;2022-12-18T10:25:44;25.37;;;16.10;;
10651;SDS011;5374;42.742;23.266;2022-12-18T10:28:37;21.87;;;15.30;;
10651;SDS011;5374;42.742;23.266;2022-12-18T10:31:26;26.27;;;17.50;;
10651;SDS011;5374;42.742;23.266;2022-12-18T10:34:13;28.37;;;19.17;;
10651;SDS011;5374;42.742;23.266;2022-12-18T10:37:01;23.93;;;16.30;;
10651;SDS011;5374;42.742;23.266;2022-12-18T10:40:08;21.87;;;16.00;;
10651;SDS011;5374;42.742;23.266;2022-12-18T10:43:05;24.80;;;17.50;;
10651;SDS011;5374;42.742;23.266;2022-12-18T10:45:58;24.30;;;16.50;;
10651;SDS011;5374;42.742;23.266;2022-12-18T10:48:49;25.80;;;16.37;;
10651;SDS011;5374;42.742;23.266;2022-12-18T10:51:39;23.93;;;16.00;;
10651;SDS011;5374;42.742;23.266;2022-12-18T10:54:26;21.27;;;15.10;;
10651;SDS011;5374;42.742;23.266;2022-12-18T10:57:19;21.70;;;15.00;;
10651;SDS011;5374;42.742;23.266;2022-12-18T11:00:22;20.47;;;13.67;;
10651;SDS011;5374;42.742;23.266;2022-12-18T11:06:18;21.57;;;14.47;;
10651;SDS011;5374;42.742;23.266;2022-12-18T11:09:18;21.67;;;14.70;;
10651;SDS011;5374;42.742;23.266;2022-12-18T11:12:14;24.27;;;16.03;;
10651;SDS011;5374;42.742;23.266;2022-12-18T11:15:05;22.13;;;15.17;;
10651;SDS011;5374;42.742;23.266;2022-12-18T11:18:15;20.47;;;14.63;;
10651;SDS011;5374;42.742;23.266;2022-12-18T11:21:05;20.50;;;14.00;;
10651;SDS011;5374;42.742;23.266;2022-12-18T11:23:54;21.87;;;15.10;;
10651;SDS011;5374;42.742;23.266;2022-12-18T11:26:44;22.40;;;14.97;;
10651;SDS011;5374;42.742;23.266;2022-12-18T11:29:32;22.47;;;15.47;;
10651;SDS011;5374;42.742;23.266;2022-12-18T11:35:32;22.93;;;14.83;;
10651;SDS011;5374;42.742;23.266;2022-12-18T11:38:24;22.77;;;15.73;;
10651;SDS011;5374;42.742;23.266;2022-12-18T11:41:16;24.43;;;17.93;;
10651;SDS011;5374;42.742;23.266;2022-12-18T11:44:08;20.40;;;14.80;;
10651;SDS011;5374;42.742;23.266;2022-12-18T11:47:00;22.00;;;16.33;;
10651;SDS011;5374;42.742;23.266;2022-12-18T11:49:52;25.93;;;17.27;;
10651;SDS011;5374;42.742;23.266;2022-12-18T11:52:42;23.47;;;15.70;;
10651;SDS011;5374;42.742;23.266;2022-12-18T11:55:32;21.57;;;15.77;;
10651;SDS011;5374;42.742;23.266;2022-12-18T11:58:32;22.07;;;16.20;;
10651;SDS011;5374;42.742;23.266;2022-12-18T12:01:33;21.20;;;15.93;;
10651;SDS011;5374;42.742;23.266;2022-12-18T12:07:41;24.40;;;15.37;;
10651;SDS011;5374;42.742;23.266;2022-12-18T12:10:38;22.10;;;15.60;;
10651;SDS011;5374;42.742;23.266;2022-12-18T12:13:39;23.20;;;16.10;;
10651;SDS011;5374;42.742;23.266;2022-12-18T12:16:37;24.37;;;16.80;;
10651;SDS011;5374;42.742;23.266;2022-12-18T12:19:37;23.03;;;16.97;;
10651;SDS011;5374;42.742;23.266;2022-12-18T12:22:33;21.17;;;15.00;;
10651;SDS011;5374;42.742;23.266;2022-12-18T12:25:31;21.83;;;15.97;;
10651;SDS011;5374;42.742;23.266;2022-12-18T12:28:32;26.20;;;17.03;;
10651;SDS011;5374;42.742;23.266;2022-12-18T12:31:39;27.23;;;19.07;;
10651;SDS011;5374;42.742;23.266;2022-12-18T12:34:44;25.13;;;17.63;;
10651;SDS011;5374;42.742;23.266;2022-12-18T12:37:43;31.57;;;23.57;;
10651;SDS011;5374;42.742;23.266;2022-12-18T12:40:41;23.67;;;17.43;;
10651;SDS011;5374;42.742;23.266;2022-12-18T12:43:33;21.00;;;15.30;;
10651;SDS011;5374;42.742;23.266;2022-12-18T12:46:25;26.57;;;19.60;;
10651;SDS011;5374;42.742;23.266;2022-12-18T12:49:14;26.43;;;18.47;;
10651;SDS011;5374;42.742;23.266;2022-12-18T12:52:05;23.50;;;17.30;;
10651;SDS011;5374;42.742;23.266;2022-12-18T12:54:57;21.50;;;16.00;;
10651;SDS011;5374;42.742;23.266;2022-12-18T12:57:48;21.93;;;15.93;;
10651;SDS011;5374;42.742;23.266;2022-12-18T13:00:56;25.27;;;18.13;;
10651;SDS011;5374;42.742;23.266;2022-12-18T13:03:56;24.97;;;17.20;;
10651;SDS011;5374;42.742;23.266;2022-12-18T13:06:50;22.20;;;15.17;;
10651;SDS011;5374;42.742;23.266;2022-12-18T13:13:03;35.10;;;22.20;;
10651;SDS011;5374;42.742;23.266;2022-12-18T13:16:02;36.60;;;24.20;;
10651;SDS011;5374;42.742;23.266;2022-12-18T13:18:57;34.57;;;22.10;;
10651;SDS011;5374;42.742;23.266;2022-12-18T13:21:45;35.03;;;22.17;;
10651;SDS011;5374;42.742;23.266;2022-12-18T13:24:40;34.03;;;23.27;;
10651;SDS011;5374;42.742;23.266;2022-12-18T13:27:53;30.47;;;22.07;;
10651;SDS011;5374;42.742;23.266;2022-12-18T13:30:52;31.27;;;22.53;;
10651;SDS011;5374;42.742;23.266;2022-12-18T13:33:42;35.10;;;22.50;;
10651;SDS011;5374;42.742;23.266;2022-12-18T13:36:33;31.20;;;21.00;;
10651;SDS011;5374;42.742;23.266;2022-12-18T13:39:22;36.50;;;24.97;;
10651;SDS011;5374;42.742;23.266;2022-12-18T13:45:45;44.47;;;28.83;;
10651;SDS011;5374;42.742;23.266;2022-12-18T13:48:37;30.67;;;22.40;;
10651;SDS011;5374;42.742;23.266;2022-12-18T13:51:25;28.40;;;20.93;;
10651;SDS011;5374;42.742;23.266;2022-12-18T13:54:17;23.97;;;17.70;;
10651;SDS011;5374;42.742;23.266;2022-12-18T13:57:24;37.60;;;25.93;;
10651;SDS011;5374;42.742;23.266;2022-12-18T14:00:19;30.20;;;21.07;;
10651;SDS011;5374;42.742;23.266;2022-12-18T14:03:16;31.23;;;21.73;;
10651;SDS011;5374;42.742;23.266;2022-12-18T14:06:07;23.63;;;16.13;;
10651;SDS011;5374;42.742;23.266;2022-12-18T14:08:55;25.20;;;15.60;;
10651;SDS011;5374;42.742;23.266;2022-12-18T14:11:46;22.50;;;15.93;;
10651;SDS011;5374;42.742;23.266;2022-12-18T14:14:34;24.73;;;16.00;;
10651;SDS011;5374;42.742;23.266;2022-12-18T14:17:21;21.47;;;15.03;;
10651;SDS011;5374;42.742;23.266;2022-12-18T14:20:12;24.00;;;17.23;;
10651;SDS011;5374;42.742;23.266;2022-12-18T14:23:02;25.53;;;18.17;;
10651;SDS011;5374;42.742;23.266;2022-12-18T14:25:49;23.03;;;15.00;;
10651;SDS011;5374;42.742;23.266;2022-12-18T14:28:42;21.83;;;15.77;;
10651;SDS011;5374;42.742;23.266;2022-12-18T14:31:30;23.97;;;16.33;;
10651;SDS011;5374;42.742;23.266;2022-12-18T14:34:18;27.80;;;17.57;;
10651;SDS011;5374;42.742;23.266;2022-12-18T14:37:05;32.93;;;20.00;;
10651;SDS011;5374;42.742;23.266;2022-12-18T14:39:59;25.07;;;16.80;;
10651;SDS011;5374;42.742;23.266;2022-12-18T14:42:48;24.13;;;17.47;;
10651;SDS011;5374;42.742;23.266;2022-12-18T14:45:35;18.13;;;13.77;;
10651;SDS011;5374;42.742;23.266;2022-12-18T14:48:36;21.57;;;15.10;;
10651;SDS011;5374;42.742;23.266;2022-12-18T14:51:25;27.57;;;17.40;;
10651;SDS011;5374;42.742;23.266;2022-12-18T14:54:14;25.60;;;17.43;;
10651;SDS011;5374;42.742;23.266;2022-12-18T14:57:06;23.37;;;15.07;;
10651;SDS011;5374;42.742;23.266;2022-12-18T15:00:04;28.77;;;19.40;;
10651;SDS011;5374;42.742;23.266;2022-12-18T15:02:53;24.90;;;17.30;;
10651;SDS011;5374;42.742;23.266;2022-12-18T15:05:45;25.40;;;17.87;;
10651;SDS011;5374;42.742;23.266;2022-12-18T15:08:38;30.50;;;21.40;;
10651;SDS011;5374;42.742;23.266;2022-12-18T15:11:27;32.00;;;23.30;;
10651;SDS011;5374;42.742;23.266;2022-12-18T15:14:23;25.90;;;19.80;;
10651;SDS011;5374;42.742;23.266;2022-12-18T15:17:18;24.77;;;17.60;;
10651;SDS011;5374;42.742;23.266;2022-12-18T15:20:09;22.27;;;15.93;;
10651;SDS011;5374;42.742;23.266;2022-12-18T15:22:57;22.87;;;16.97;;
10651;SDS011;5374;42.742;23.266;2022-12-18T15:25:44;21.07;;;13.87;;
10651;SDS011;5374;42.742;23.266;2022-12-18T15:28:34;19.17;;;13.73;;
10651;SDS011;5374;42.742;23.266;2022-12-18T15:31:28;21.47;;;14.60;;
10651;SDS011;5374;42.742;23.266;2022-12-18T15:34:18;21.37;;;14.90;;
10651;SDS011;5374;42.742;23.266;2022-12-18T15:37:07;25.20;;;15.87;;
10651;SDS011;5374;42.742;23.266;2022-12-18T15:39:54;24.63;;;17.20;;
10651;SDS011;5374;42.742;23.266;2022-12-18T15:42:42;21.90;;;15.50;;
10651;SDS011;5374;42.742;23.266;2022-12-18T15:45:47;25.20;;;16.13;;
10651;SDS011;5374;42.742;23.266;2022-12-18T15:48:37;21.30;;;15.07;;
10651;SDS011;5374;42.742;23.266;2022-12-18T15:51:27;26.03;;;15.77;;
10651;SDS011;5374;42.742;23.266;2022-12-18T15:54:16;25.83;;;16.63;;
10651;SDS011;5374;42.742;23.266;2022-12-18T15:57:23;22.73;;;15.87;;
10651;SDS011;5374;42.742;23.266;2022-12-18T16:00:11;24.00;;;16.33;;
10651;SDS011;5374;42.742;23.266;2022-12-18T16:02:59;40.43;;;22.90;;
10651;SDS011;5374;42.742;23.266;2022-12-18T16:05:48;35.93;;;22.80;;
10651;SDS011;5374;42.742;23.266;2022-12-18T16:08:35;27.60;;;18.00;;
10651;SDS011;5374;42.742;23.266;2022-12-18T16:11:22;24.70;;;18.07;;
10651;SDS011;5374;42.742;23.266;2022-12-18T16:14:24;44.70;;;24.23;;
10651;SDS011;5374;42.742;23.266;2022-12-18T16:17:14;25.30;;;17.17;;
10651;SDS011;5374;42.742;23.266;2022-12-18T16:20:01;22.57;;;15.27;;
10651;SDS011;5374;42.742;23.266;2022-12-18T16:22:50;21.60;;;14.80;;
10651;SDS011;5374;42.742;23.266;2022-12-18T16:25:38;26.63;;;16.97;;
10651;SDS011;5374;42.742;23.266;2022-12-18T16:28:25;27.73;;;18.07;;
10651;SDS011;5374;42.742;23.266;2022-12-18T16:31:12;25.33;;;16.70;;
10651;SDS011;5374;42.742;23.266;2022-12-18T16:34:09;23.67;;;15.97;;
10651;SDS011;5374;42.742;23.266;2022-12-18T16:36:57;21.40;;;15.13;;
10651;SDS011;5374;42.742;23.266;2022-12-18T16:39:47;21.77;;;15.17;;
10651;SDS011;5374;42.742;23.266;2022-12-18T16:42:34;31.03;;;18.90;;
10651;SDS011;5374;42.742;23.266;2022-12-18T16:45:22;33.50;;;20.97;;
10651;SDS011;5374;42.742;23.266;2022-12-18T16:48:09;24.23;;;16.13;;
10651;SDS011;5374;42.742;23.266;2022-12-18T16:50:59;27.60;;;18.07;;
10651;SDS011;5374;42.742;23.266;2022-12-18T16:53:47;32.83;;;19.83;;